• Join FlightAware (Why Join?)
  • Login
  • US Flag 
10:25AM EDT


 

Airport Tracker/Info


-or-


 

Live Flight TrackerFlight Track Log ✈ FDX1570 ✈ 14-May-2013 ✈ KMEM - KALB

Flight Track Log - Related Links

Times and Time Zones

All times are in EDT time to prevent confusion due to time zone crossing. See the FDX1570 flight status page for this flight to view local times or setup timezone preferences in your user account.

Time Position Orientation Groundspeed Altitude Reporting Facility
EDT Latitude Longitude Course Direction KTS MPH feet Rate Location/Type
04:33AM 35.0333 -89.9667 73° East 159 183 1,100  Level KMEM
04:34AM 35.0000 -89.9667 180° South 164 189 2,500 1,920 Climbing KMEM
04:35AM 34.9500 -89.9167 141° Southeast 291 335 4,200 2,580 Climbing KMEM
04:36AM 34.9833 -89.8500 59° Northeast 286 329 7,400 3,360 Climbing KMEM
04:36AM 35.0103 -89.7892 62° Northeast 293 337 9,600 2,340 Climbing Memphis Center
04:37AM 35.0431 -89.7028 65° Northeast 311 358 11,300 1,560 Climbing Memphis Center
04:38AM 35.0800 -89.5908 68° East 337 388 12,800 1,860 Climbing Memphis Center
04:39AM 35.2246 -89.1848 73° East  Level FlightAware Approximate
04:39AM 35.1231 -89.4686 67° East 371 427 15,100  Level Memphis Center
04:40AM 35.1681 -89.3411 67° East 396 456 17,200 1,920 Climbing Memphis Center
04:41AM 35.2189 -89.1956 67° East 406 467 19,000 1,800 Climbing Memphis Center
04:42AM 35.2761 -89.0700 61° Northeast 420 483 20,900 1,740 Climbing Memphis Center
04:43AM 35.3456 -88.9417 56° Northeast 433 498 22,500 1,560 Climbing Memphis Center
04:44AM 35.4192 -88.8156 54° Northeast 445 512 24,100 1,500 Climbing Memphis Center
04:45AM 35.4925 -88.6944 53° Northeast 445 512 25,600 1,320 Climbing Memphis Center
04:46AM 35.5722 -88.5653 53° Northeast 457 526 26,800 1,140 Climbing Memphis Center
04:47AM 35.6514 -88.4331 54° Northeast 468 539 27,900 1,260 Climbing Memphis Center
04:48AM 35.7308 -88.3036 53° Northeast 474 545 29,400 1,800 Climbing Memphis Center
04:49AM 35.8097 -88.1708 54° Northeast 474 545 31,500 1,860 Climbing Memphis Center
04:50AM 35.8828 -88.0511 53° Northeast 458 527 33,200 1,200 Climbing Memphis Center
04:56AM 36.2400 -87.4450 53° Northeast 408 470 39,000 960 Climbing FlightAware
04:56AM 36.2780 -87.3810 54° Northeast 408 470 39,000  Level FlightAware
04:57AM 36.3540 -87.2500 54° Northeast 417 480 39,000  Level FlightAware
04:58AM 36.4200 -87.1370 54° Northeast 421 484 39,000  Level FlightAware
04:59AM 36.4680 -87.0520 55° Northeast 422 486 39,000  Level FlightAware
04:59AM 36.5080 -86.9850 53° Northeast 422 486 39,000  Level FlightAware
05:00AM 36.5560 -86.9010 55° Northeast 422 486 39,000  Level FlightAware
05:01AM 36.5950 -86.8340 54° Northeast 422 486 39,000  Level FlightAware
05:01AM 36.6476 -86.7403 55° Northeast 423 487 39,000  Level FlightAware ADS-B
05:02AM 36.6820 -86.6806 54° Northeast 424 488 39,000  Level FlightAware ADS-B
05:02AM 36.7167 -86.6210 54° Northeast 424 488 39,000  Level FlightAware ADS-B
05:03AM 36.7531 -86.5573 54° Northeast 424 488 39,000  Level FlightAware ADS-B
05:03AM 36.7877 -86.4954 55° Northeast 424 488 39,000  Level FlightAware ADS-B
05:04AM 36.8231 -86.4336 54° Northeast 424 488 39,000  Level FlightAware ADS-B
05:05AM 36.8625 -86.3637 55° Northeast 425 489 39,000  Level FlightAware ADS-B
05:05AM 36.9200 -86.2620 55° Northeast 424 488 39,000  Level FlightAware
05:06AM 36.9630 -86.1890 54° Northeast 424 488 39,000  Level FlightAware
05:07AM 37.0280 -86.0710 55° Northeast 425 489 39,000  Level FlightAware
05:08AM 37.0659 -86.0026 55° Northeast 425 489 39,000  Level FlightAware ADS-B
05:08AM 37.1081 -85.9278 55° Northeast 426 490 39,000  Level FlightAware ADS-B
05:09AM 37.1450 -85.8611 55° Northeast 427 491 39,000  Level FlightAware ADS-B
05:09AM 37.1790 -85.8004 55° Northeast 427 491 39,000  Level FlightAware ADS-B
05:10AM 37.2139 -85.7375 55° Northeast 427 491 39,000  Level FlightAware ADS-B
05:10AM 37.2495 -85.6746 55° Northeast 426 490 39,000  Level FlightAware ADS-B
05:11AM 37.2834 -85.6136 55° Northeast 427 491 39,000  Level FlightAware ADS-B
05:11AM 37.3176 -85.5507 56° Northeast 427 491 39,000  Level FlightAware ADS-B
05:12AM 37.3518 -85.4894 55° Northeast 428 493 39,000  Level FlightAware ADS-B
05:12AM 37.3877 -85.4241 55° Northeast 428 493 39,000  Level FlightAware ADS-B
05:13AM 37.4217 -85.3627 55° Northeast 429 494 39,000  Level FlightAware ADS-B
05:13AM 37.4556 -85.3009 55° Northeast 429 494 39,000  Level FlightAware ADS-B
05:14AM 37.4895 -85.2393 55° Northeast 429 494 39,000  Level FlightAware ADS-B
05:14AM 37.5239 -85.1757 56° Northeast 429 494 39,000  Level FlightAware ADS-B
05:15AM 37.5578 -85.1139 55° Northeast 429 494 39,000  Level FlightAware ADS-B
05:15AM 37.5917 -85.0521 55° Northeast 429 494 39,000  Level FlightAware ADS-B
05:16AM 37.6269 -84.9882 55° Northeast 429 494 39,000  Level FlightAware ADS-B
05:16AM 37.6649 -84.9182 56° Northeast 429 494 39,000  Level FlightAware ADS-B
05:17AM 37.6997 -84.8540 56° Northeast 428 493 39,000  Level FlightAware ADS-B
05:18AM 37.7406 -84.7776 56° Northeast 428 493 39,000  Level FlightAware ADS-B
05:18AM 37.8000 -84.6680 56° Northeast 429 494 39,000  Level FlightAware
05:19AM 37.8249 -84.6224 55° Northeast 429 494 39,000  Level FlightAware ADS-B
05:20AM 37.8950 -84.4920 56° Northeast 429 494 39,000  Level FlightAware
05:21AM 37.9400 -84.4060 56° Northeast 429 494 39,000  Level FlightAware
05:21AM 37.9890 -84.3150 56° Northeast 430 495 39,000  Level FlightAware
05:22AM 38.0340 -84.2310 56° Northeast 430 495 39,000  Level FlightAware
05:23AM 38.0770 -84.1490 56° Northeast 431 496 39,000  Level FlightAware
05:23AM 38.1190 -84.0720 55° Northeast 431 496 39,000  Level FlightAware
05:24AM 38.1570 -84.0010 56° Northeast 431 496 39,000  Level FlightAware
05:25AM 38.2100 -83.8980 57° Northeast 428 493 39,000  Level FlightAware
05:25AM 38.2530 -83.8160 56° Northeast 428 493 39,000  Level FlightAware
05:26AM 38.2910 -83.7440 56° Northeast 428 493 39,000  Level FlightAware
05:27AM 38.3520 -83.6260 57° Northeast 425 489 39,000  Level FlightAware
05:28AM 38.3980 -83.5390 56° Northeast 425 489 39,000  Level FlightAware
05:28AM 38.4360 -83.4690 55° Northeast 425 489 39,000  Level FlightAware
05:29AM 38.4730 -83.3980 56° Northeast 425 489 39,000  Level FlightAware
05:30AM 38.5110 -83.3270 56° Northeast 425 489 39,000  Level FlightAware
05:30AM 38.5570 -83.2380 57° Northeast 425 489 39,000  Level FlightAware
05:31AM 38.5950 -83.1670 56° Northeast 425 489 39,000  Level FlightAware
05:32AM 38.6720 -83.0070 58° Northeast 426 490 39,000  Level FlightAware
05:32AM 38.7200 -82.9120 57° Northeast 426 490 39,000  Level FlightAware
05:33AM 38.7650 -82.8240 57° Northeast 425 489 39,000  Level FlightAware
05:34AM 38.8090 -82.7390 56° Northeast 425 489 39,000  Level FlightAware
05:34AM 38.8460 -82.6650 57° Northeast 425 489 39,000  Level FlightAware
05:35AM 38.9000 -82.5590 57° Northeast 426 490 39,000  Level FlightAware
05:36AM 38.9470 -82.4660 57° Northeast 426 490 39,000  Level FlightAware
05:37AM 38.9890 -82.3830 57° Northeast 425 489 39,000  Level FlightAware
05:37AM 39.0360 -82.2870 58° Northeast 424 488 39,000  Level FlightAware
05:38AM 39.0790 -82.2020 57° Northeast 424 488 39,000  Level FlightAware
05:39AM 39.1220 -82.1150 57° Northeast 423 487 39,000  Level FlightAware
05:39AM 39.1690 -82.0220 57° Northeast 422 486 39,000  Level FlightAware
05:40AM 39.2110 -81.9350 58° Northeast 420 483 39,000  Level FlightAware
05:41AM 39.2570 -81.8450 57° Northeast 418 481 39,000  Level FlightAware
05:42AM 39.3000 -81.7590 57° Northeast 416 479 39,000  Level FlightAware
05:42AM 39.3400 -81.6740 59° Northeast 416 479 39,000  Level FlightAware
05:43AM 39.3880 -81.5760 58° Northeast 414 476 39,000  Level FlightAware
05:44AM 39.4330 -81.4840 58° Northeast 413 475 39,000  Level FlightAware
05:44AM 39.4690 -81.4070 59° Northeast 424 488 39,000  Level FlightAware
05:45AM 39.5010 -81.3030 68° East 433 498 39,000  Level FlightAware
05:46AM 39.5290 -81.2040 70° East 432 497 39,000  Level FlightAware
05:46AM 39.5620 -81.0920 69° East 432 497 39,000  Level FlightAware
05:47AM 39.5910 -80.9950 69° East 432 497 39,000  Level FlightAware
05:48AM 39.6220 -80.8910 69° East 432 497 39,000  Level FlightAware
05:49AM 39.6500 -80.7920 70° East 432 497 39,000  Level FlightAware
05:49AM 39.6830 -80.6860 68° East 424 488 39,000  Level FlightAware
05:50AM 39.7190 -80.5980 62° Northeast 412 474 39,000  Level FlightAware
05:51AM 39.7610 -80.5110 58° Northeast 408 470 39,000  Level FlightAware
05:51AM 39.8050 -80.4220 57° Northeast 407 468 39,000  Level FlightAware
05:52AM 39.8420 -80.3480 57° Northeast 407 468 39,000  Level FlightAware
05:53AM 39.8870 -80.2570 57° Northeast 408 470 39,000  Level FlightAware
05:53AM 39.9280 -80.1740 57° Northeast 408 470 39,000  Level FlightAware
05:54AM 39.9870 -80.0540 57° Northeast 409 471 39,000  Level FlightAware
05:55AM 40.0360 -79.9540 57° Northeast 410 472 39,000  Level FlightAware
05:56AM 40.0770 -79.8710 57° Northeast 411 473 39,000  Level FlightAware
05:56AM 40.1180 -79.7890 57° Northeast 413 475 39,000  Level FlightAware
05:57AM 40.1650 -79.6910 58° Northeast 416 479 39,000  Level FlightAware
05:58AM 40.2070 -79.6060 57° Northeast 418 481 39,000  Level FlightAware
05:59AM 40.2530 -79.5100 58° Northeast 421 484 39,000  Level FlightAware
05:59AM 40.2950 -79.4230 58° Northeast 424 488 39,000  Level FlightAware
06:00AM 40.3430 -79.3230 58° Northeast 425 489 39,000  Level FlightAware
06:01AM 40.3850 -79.2350 58° Northeast 428 493 39,000  Level FlightAware
06:01AM 40.4270 -79.1490 57° Northeast 433 498 39,000  Level FlightAware
06:02AM 40.4750 -79.0480 58° Northeast 443 510 39,000  Level FlightAware
06:03AM 40.5180 -78.9560 58° Northeast 450 518 39,000  Level FlightAware
06:04AM 40.5690 -78.8480 58° Northeast 455 524 39,000  Level FlightAware
06:04AM 40.6120 -78.7590 58° Northeast 458 527 39,000  Level FlightAware
06:05AM 40.6570 -78.6610 59° Northeast 459 528 39,000  Level FlightAware
06:05AM 40.6960 -78.5806 57° Northeast 459 528 39,000  Level FlightAware ADS-B
06:06AM 40.7470 -78.4710 58° Northeast 457 526 39,000  Level FlightAware
06:07AM 40.7960 -78.3670 58° Northeast 456 525 39,000  Level FlightAware
06:08AM 40.8390 -78.2750 58° Northeast 456 525 39,000  Level FlightAware
06:08AM 40.8900 -78.1660 58° Northeast 455 524 39,000  Level FlightAware
06:09AM 40.9350 -78.0680 59° Northeast 457 526 39,000  Level FlightAware
06:09AM 40.9467 -78.0421 59° Northeast 459 528 39,000  Level FlightAware ADS-B
06:10AM 40.9780 -77.9750 58° Northeast 462 532 39,000  Level FlightAware
06:11AM 41.0290 -77.8600 60° Northeast 465 535 39,000  Level FlightAware
06:11AM 41.0730 -77.7640 59° Northeast 467 537 39,000  Level FlightAware
06:12AM 41.1142 -77.6733 59° Northeast 469 540 39,000  Level FlightAware ADS-B
06:12AM 41.1506 -77.5916 59° Northeast 471 542 39,000 -240 Level FlightAware ADS-B
06:13AM 41.1984 -77.4846 59° Northeast 472 543 38,700 -720 Descending FlightAware ADS-B
06:14AM 41.2569 -77.3527 59° Northeast 470 541 37,900 -840 Descending FlightAware ADS-B
06:14AM 41.2961 -77.2662 59° Northeast 467 537 37,500 -780 Descending FlightAware ADS-B
06:15AM 41.3305 -77.1912 59° Northeast 460 529 37,100 -660 Descending FlightAware ADS-B
06:15AM 41.3522 -77.1497 55° Northeast 454 522 37,000 -780 Descending FlightAware ADS-B
06:16AM 41.3912 -77.0830 52° Northeast 453 521 36,500 -960 Descending FlightAware ADS-B
06:16AM 41.4280 -77.0193 52° Northeast 453 521 36,100 -900 Descending FlightAware ADS-B
06:17AM 41.4742 -76.9433 51° Northeast 452 520 35,600 -840 Descending FlightAware ADS-B
06:17AM 41.5152 -76.8740 52° Northeast 448 516 35,200 -780 Descending FlightAware ADS-B
06:18AM 41.5539 -76.8094 51° Northeast 446 513 34,800 -840 Descending FlightAware ADS-B
06:18AM 41.5987 -76.7360 51° Northeast 449 517 34,300 -960 Descending FlightAware ADS-B
06:19AM 41.6380 -76.6688 52° Northeast 449 517 33,800 -1,020 Descending FlightAware ADS-B
06:19AM 41.6772 -76.6034 51° Northeast 452 520 33,300 -1,200 Descending FlightAware ADS-B
06:20AM 41.7163 -76.5354 52° Northeast 450 518 32,600 -2,580 Descending FlightAware ADS-B
06:21AM 41.7620 -76.4585 51° Northeast 457 526 30,500 -3,000 Descending FlightAware ADS-B
06:21AM 41.7940 -76.4040 52° Northeast 469 540 29,400 -2,460 Descending FlightAware
06:21AM 41.8050 -76.3860 51° Northeast 457 526 29,200 -720 Descending FlightAware ADS-B
06:22AM 41.8360 -76.3340 51° Northeast 465 535 29,000 -180 Descending FlightAware
06:22AM 41.8950 -76.2310 52° Northeast 467 537 29,000 -540 Level FlightAware
06:23AM 41.9610 -76.1190 52° Northeast 451 519 28,200 -2,100 Descending FlightAware
06:24AM 42.0110 -76.0330 52° Northeast 441 507 26,100 -1,860 Descending FlightAware
06:25AM 42.0610 -75.9490 51° Northeast 439 505 25,600 -360 Descending FlightAware
06:25AM 42.1050 -75.8770 51° Northeast 439 505 25,600  Level FlightAware
06:26AM 42.1480 -75.8040 52° Northeast 439 505 25,600  Level FlightAware
06:27AM 42.1920 -75.7320 50° Northeast 439 505 25,600  Level FlightAware
06:27AM 42.2350 -75.6590 51° Northeast 439 505 25,600 -1,380 Level FlightAware
06:28AM 42.2920 -75.5050 63° Northeast 455 524 24,000 -1,320 Descending FlightAware
06:28AM 42.3270 -75.3990 66° East 455 524 24,000 -1,140 Level FlightAware
06:29AM 42.3530 -75.2910 72° East 446 513 22,400 -1,200 Descending FlightAware
06:30AM 42.3780 -75.2020 69° East 446 513 22,400  Level FlightAware
06:30AM 42.4030 -75.1130 69° East 446 513 22,400  Level FlightAware
06:31AM 42.4350 -75.0020 69° East 446 513 22,400  Level FlightAware
06:32AM 42.4600 -74.9140 69° East 446 513 22,400 -5,400 Level FlightAware
06:33AM 42.5022 -74.7353 69° East 416 479 14,200 -7,620 Descending Boston Center
06:33AM 42.5111 -74.7047 68° East 391 450 13,900 -1,320 Descending Boston Center
06:34AM 42.5317 -74.6181 72° East 382 440 12,900 -1,440 Descending Boston Center
06:34AM 42.5450 -74.5819 63° Northeast 347 399 12,500 -1,320 Descending Boston Center
06:35AM 42.5611 -74.4867 77° East 340 391 11,600 -1,140 Descending Boston Center
06:35AM 42.5617 -74.4642 88° East 322 371 11,400 -1,440 Descending Boston Center
06:36AM 42.5611 -74.3794 90° East 317 365 10,200 -1,680 Descending Boston Center
06:36AM 42.5636 -74.3428 85° East 305 351 9,700 -1,920 Descending Boston Center
06:37AM 42.5650 -74.2611 89° East 298 343 8,300 -2,040 Descending Boston Center
06:37AM 42.5675 -74.2303 84° East 282 325 7,700 -1,800 Descending Boston Center
06:38AM 42.5708 -74.1656 86° East 278 320 6,500 -1,980 Descending Boston Center
06:38AM 42.5714 -74.1289 89° East 266 306 5,700 -2,340 Descending Boston Center
06:39AM 42.5744 -74.0556 87° East 265 305 4,200 -1,620 Descending Boston Center
06:39AM 42.5747 -74.0303 89° East 263 303 4,100 -360 Descending Boston Center
06:40AM 42.5758 -73.9428 89° East 230 265 3,800 -540 Descending Boston Center
06:41AM 42.5767 -73.8781 89° East 230 265 3,200 -1,020 Descending Boston Center
06:41AM 42.5750 -73.8556 96° East 217 250 2,800 -720 Descending Boston Center
06:42AM 42.5839 -73.8050 77° East 220 253 2,500 -300 Descending Boston Center
06:42AM 42.5947 -73.7853 53° Northeast 176 203 2,500  Level Boston Center
06:43AM 42.6133 -73.7969 335° Northwest 130 150 2,500  Level Boston Center
06:43AM 42.6278 -73.8003 350° North 117 135 2,500 8,460 Level Boston Center
06:44AM 42.6486 -73.7950 11° North 111 128 11,000 -600 Climbing Boston Center
06:44AM 42.6611 -73.8036 333° Northwest 111 128 1,900  Descending Boston Center
06:45AM 42.6800 -73.7900 28° Northeast 111 128 11,000 -600 Climbing Boston Center
06:45AM 42.6903 -73.8044 314° West 110 127 1,300  Descending Boston Center
06:46AM 42.7114 -73.7822 38° Northeast 111 128 11,000 -720 Climbing Boston Center
06:46AM 42.7256 -73.8053 310° West 122 140 600  Descending Boston Center
06:47AM 42.7428 -73.7772 50° Northeast 111 128 11,000 6,420 Climbing Boston Center
06:48AM 42.7614 -73.7719 12° North 111 128 11,000  Level Boston Center